Time;durP1;ratioP1;P1;durP2;ratioP2;P2;SDS_P1;SDS_P2;PMS_P1;PMS_P2;Temp;Humidity;BMP_temperature;BMP_pressure;BME280_temperature;BME280_humidity;BME280_pressure;Samples;Min_cycle;Max_cycle;Signal;HPM_P1;HPM_P2
2022/11/30 00:00:19;;;;;;;;;;;21.30;66.70;;;;;;1565419;75;1166;-68
2022/11/30 00:02:21;;;;;;;;;;;21.30;66.50;;;;;;1564380;75;603;-69
2022/11/30 00:04:23;;;;;;;;;;;21.20;66.50;;;;;;1567942;75;655;-70
2022/11/30 00:06:25;;;;;;;;;;;21.20;66.40;;;;;;1568873;74;615;-68
2022/11/30 00:08:28;;;;;;;;;;;21.30;66.50;;;;;;1566148;74;1942;-70
2022/11/30 00:10:29;;;;;;;;;;;21.30;66.50;;;;;;1556621;75;1151;-69
2022/11/30 00:12:31;;;;;;;;;;;21.30;66.40;;;;;;1566323;74;1488;-71
2022/11/30 00:14:33;;;;;;;;;;;21.30;66.40;;;;;;1559333;74;796;-69
2022/11/30 00:16:35;;;;;;;;;;;21.30;66.60;;;;;;1568244;74;793;-69
2022/11/30 00:18:37;;;;;;;;;;;21.30;66.50;;;;;;1556356;75;691;-69
2022/11/30 00:20:39;;;;;;;;;;;21.20;66.50;;;;;;1565375;74;1142;-68
2022/11/30 00:22:41;;;;;;;;;;;21.20;66.60;;;;;;1575382;74;599;-71
2022/11/30 00:24:43;;;;;;;;;;;21.20;66.70;;;;;;1561031;74;736;-70
2022/11/30 00:26:45;;;;;;;;;;;21.20;66.80;;;;;;1576798;74;1479;-70
2022/11/30 00:28:47;;;;;;;;;;;21.20;66.90;;;;;;1557103;74;1976;-69
2022/11/30 00:30:50;;;;;;;;;;;21.20;66.90;;;;;;1572549;75;1186;-68
2022/11/30 00:32:54;;;;;;;;;;;21.20;66.90;;;;;;1568512;75;1789;-68
2022/11/30 00:34:56;;;;;;;;;;;21.20;66.90;;;;;;1556129;74;1752;-66
2022/11/30 00:36:57;;;;;;;;;;;21.10;66.90;;;;;;1558614;74;717;-69
2022/11/30 00:38:59;;;;;;;;;;;21.20;66.90;;;;;;1558655;74;755;-67
2022/11/30 00:41:01;;;;;;;;;;;21.20;66.80;;;;;;1563969;74;1413;-69
2022/11/30 00:43:03;;;;;;;;;;;21.20;66.80;;;;;;1556717;74;799;-67
2022/11/30 00:45:05;;;;;;;;;;;21.20;66.80;;;;;;1576668;74;709;-70
2022/11/30 00:47:07;;;;;;;;;;;21.20;66.90;;;;;;1563127;75;740;-68
2022/11/30 00:49:09;;;;;;;;;;;21.20;66.80;;;;;;1563015;74;1932;-68
2022/11/30 00:51:11;;;;;;;;;;;21.20;66.80;;;;;;1570626;74;710;-68
2022/11/30 00:53:13;;;;;;;;;;;21.20;66.80;;;;;;1555992;74;735;-69
2022/11/30 00:55:15;;;;;;;;;;;21.30;66.90;;;;;;1562703;74;1641;-68
2022/11/30 00:57:17;;;;;;;;;;;21.20;66.80;;;;;;1558372;74;781;-69
2022/11/30 00:59:18;;;;;;;;;;;21.20;66.80;;;;;;1560062;74;1159;-69
2022/11/30 01:01:20;;;;;;;;;;;21.30;66.90;;;;;;1566095;74;751;-69
2022/11/30 01:03:22;;;;;;;;;;;21.30;66.90;;;;;;1566411;75;708;-68
2022/11/30 01:05:24;;;;;;;;;;;21.20;66.70;;;;;;1567151;75;644;-69
2022/11/30 01:07:26;;;;;;;;;;;21.30;66.80;;;;;;1563647;74;1457;-69
2022/11/30 01:09:28;;;;;;;;;;;21.30;66.80;;;;;;1561122;74;1922;-69
2022/11/30 01:11:30;;;;;;;;;;;21.30;66.70;;;;;;1576601;74;697;-68
2022/11/30 01:13:32;;;;;;;;;;;21.30;66.70;;;;;;1567418;74;950;-71
2022/11/30 01:15:37;;;;;;;;;;;21.20;66.60;;;;;;1568500;74;742;-69
2022/11/30 01:17:39;;;;;;;;;;;21.30;66.70;;;;;;1556700;74;721;-69
2022/11/30 01:19:41;;;;;;;;;;;21.20;66.50;;;;;;1580563;74;1177;-70
2022/11/30 01:21:43;;;;;;;;;;;21.30;66.70;;;;;;1566762;74;1577;-70
2022/11/30 01:23:45;;;;;;;;;;;21.30;66.70;;;;;;1574773;74;743;-69
2022/11/30 01:25:54;;;;;;;;;;;21.30;66.60;;;;;;1563102;74;720;-68
2022/11/30 01:27:56;;;;;;;;;;;21.20;66.50;;;;;;1568901;74;707;-70
2022/11/30 01:29:57;;;;;;;;;;;21.30;66.60;;;;;;1569513;72;229817;-78
2022/11/30 01:31:59;;;;;;;;;;;21.30;66.70;;;;;;1579106;74;702;-78
2022/11/30 01:34:01;;;;;;;;;;;21.30;66.80;;;;;;1574797;74;794;-73
2022/11/30 01:36:08;;;;;;;;;;;21.20;66.80;;;;;;1571684;74;1426;-75
2022/11/30 01:38:09;;;;;;;;;;;21.20;66.80;;;;;;1568365;74;1830;-77
2022/11/30 01:40:11;;;;;;;;;;;21.30;67.00;;;;;;1580631;74;1174;-77
2022/11/30 01:42:15;;;;;;;;;;;21.30;66.80;;;;;;1575139;74;709;-77
2022/11/30 01:44:25;;;;;;;;;;;21.30;66.70;;;;;;1573179;74;1475;-78
2022/11/30 01:46:24;;;;;;;;;;;21.20;66.60;;;;;;1572772;74;1660;-79
2022/11/30 01:48:25;;;;;;;;;;;21.20;66.60;;;;;;1577168;74;763;-77
2022/11/30 01:50:28;;;;;;;;;;;21.30;66.60;;;;;;1574990;74;1921;-78
2022/11/30 01:52:40;;;;;;;;;;;21.30;66.50;;;;;;1573188;74;732;-76
2022/11/30 01:54:53;;;;;;;;;;;21.30;66.50;;;;;;1576159;74;723;-75
2022/11/30 01:56:56;;;;;;;;;;;21.30;66.60;;;;;;1574982;74;760;-78
2022/11/30 01:58:58;;;;;;;;;;;21.30;66.60;;;;;;1544205;76;712;-77
2022/11/30 02:00:59;;;;;;;;;;;21.20;66.60;;;;;;1575915;74;1127;-78
2022/11/30 02:03:15;;;;;;;;;;;21.20;66.70;;;;;;1575850;74;646;-78
2022/11/30 02:05:17;;;;;;;;;;;21.20;66.60;;;;;;1569686;74;1714;-78
2022/11/30 02:07:19;;;;;;;;;;;21.20;66.50;;;;;;1575121;74;791;-78
2022/11/30 02:09:21;;;;;;;;;;;21.20;66.50;;;;;;1575182;74;1926;-78
2022/11/30 02:11:22;;;;;;;;;;;21.30;66.60;;;;;;1579174;74;1137;-78
2022/11/30 02:13:43;;;;;;;;;;;21.20;66.50;;;;;;1569231;74;791;-77
2022/11/30 02:15:52;;;;;;;;;;;21.30;66.50;;;;;;1579007;74;751;-78
2022/11/30 02:17:58;;;;;;;;;;;21.20;66.30;;;;;;1577230;74;1542;-77
2022/11/30 02:20:13;;;;;;;;;;;21.30;66.50;;;;;;1546998;75;1124;-78
2022/11/30 02:22:17;;;;;;;;;;;21.30;66.50;;;;;;1576611;74;1037;-78
2022/11/30 02:24:23;;;;;;;;;;;21.20;66.30;;;;;;1575942;74;727;-78
2022/11/30 02:26:30;;;;;;;;;;;21.20;66.20;;;;;;1588780;74;2039;-79
2022/11/30 02:28:51;;;;;;;;;;;21.20;66.30;;;;;;1562679;74;898;-78
2022/11/30 02:30:53;;;;;;;;;;;21.20;66.30;;;;;;1563382;74;1942;-76
2022/11/30 02:32:59;;;;;;;;;;;21.20;66.30;;;;;;1582131;74;1557;-78
2022/11/30 02:35:01;;;;;;;;;;;21.20;66.20;;;;;;1539927;75;774;-79
2022/11/30 02:37:03;;;;;;;;;;;21.10;66.40;;;;;;1565153;74;656;-79
2022/11/30 02:39:05;;;;;;;;;;;21.20;66.40;;;;;;1544407;75;731;-78
2022/11/30 02:41:07;;;;;;;;;;;21.20;66.40;;;;;;1586772;74;1044;-78
2022/11/30 02:43:09;;;;;;;;;;;21.20;66.40;;;;;;1576092;74;717;-78
2022/11/30 02:45:11;;;;;;;;;;;21.20;66.40;;;;;;1573393;74;779;-79
2022/11/30 02:47:17;;;;;;;;;;;21.10;66.40;;;;;;1574892;74;1700;-78
2022/11/30 02:49:39;;;;;;;;;;;21.20;66.40;;;;;;1575055;74;1922;-78
2022/11/30 02:51:41;;;;;;;;;;;21.20;66.50;;;;;;1573412;74;674;-78
2022/11/30 02:53:43;;;;;;;;;;;21.20;66.60;;;;;;1551214;75;669;-79
2022/11/30 02:55:45;;;;;;;;;;;21.20;66.70;;;;;;1521967;77;737;-80
2022/11/30 02:57:46;;;;;;;;;;;21.20;66.70;;;;;;1520820;77;795;-79
2022/11/30 02:59:48;;;;;;;;;;;21.20;66.60;;;;;;1511195;77;1133;-78
2022/11/30 03:01:50;;;;;;;;;;;21.20;66.60;;;;;;1537522;76;1602;-77
2022/11/30 03:03:52;;;;;;;;;;;21.20;66.60;;;;;;1533538;76;751;-78
2022/11/30 03:05:54;;;;;;;;;;;21.20;66.70;;;;;;1533749;76;760;-77
2022/11/30 03:07:56;;;;;;;;;;;21.20;66.70;;;;;;1534605;76;741;-77
2022/11/30 03:09:58;;;;;;;;;;;21.20;66.70;;;;;;1518507;77;1944;-76
2022/11/30 03:12:00;;;;;;;;;;;21.10;66.60;;;;;;1573766;74;974;-77
2022/11/30 03:14:02;;;;;;;;;;;21.20;66.90;;;;;;1543509;75;1506;-79
2022/11/30 03:16:11;;;;;;;;;;;21.20;66.90;;;;;;1514480;77;687;-79
2022/11/30 03:18:13;;;;;;;;;;;21.20;66.80;;;;;;1517692;77;776;-78
2022/11/30 03:20:15;;;;;;;;;;;21.20;66.80;;;;;;1523120;77;1178;-77
2022/11/30 03:22:17;;;;;;;;;;;21.20;66.80;;;;;;1519054;77;786;-78
2022/11/30 03:24:19;;;;;;;;;;;21.20;66.90;;;;;;1519121;77;736;-78
2022/11/30 03:26:20;;;;;;;;;;;21.10;66.90;;;;;;1518397;77;714;-77
2022/11/30 03:28:22;;;;;;;;;;;21.20;67.00;;;;;;1521421;77;1539;-78
2022/11/30 03:30:24;;;;;;;;;;;21.10;67.10;;;;;;1529122;76;1944;-75
2022/11/30 03:32:26;;;;;;;;;;;21.10;67.20;;;;;;1527926;76;801;-78
2022/11/30 03:34:28;;;;;;;;;;;21.10;67.30;;;;;;1518353;77;733;-78
2022/11/30 03:36:30;;;;;;;;;;;21.00;67.40;;;;;;1544171;75;726;-77
2022/11/30 03:38:32;;;;;;;;;;;21.10;67.60;;;;;;1574098;74;778;-77
2022/11/30 03:40:35;;;;;;;;;;;21.10;67.80;;;;;;1574351;74;1167;-78
2022/11/30 03:42:37;;;;;;;;;;;21.00;67.90;;;;;;1578364;74;1566;-77
2022/11/30 03:44:39;;;;;;;;;;;21.00;68.00;;;;;;1575106;74;734;-77
2022/11/30 03:46:41;;;;;;;;;;;21.00;68.10;;;;;;1574923;74;806;-77
2022/11/30 03:48:43;;;;;;;;;;;21.00;68.20;;;;;;1585977;74;728;-77
2022/11/30 03:50:48;;;;;;;;;;;21.00;68.30;;;;;;1569950;74;1944;-77
2022/11/30 03:52:48;;;;;;;;;;;21.10;68.50;;;;;;1573998;74;1688;-76
2022/11/30 03:54:50;;;;;;;;;;;21.10;68.70;;;;;;1575403;74;745;-77
2022/11/30 03:56:52;;;;;;;;;;;21.10;68.90;;;;;;1578903;74;1534;-76
2022/11/30 03:58:54;;;;;;;;;;;21.10;68.70;;;;;;1575086;74;718;-77
2022/11/30 04:01:00;;;;;;;;;;;21.00;68.70;;;;;;1543466;75;1074;-77
2022/11/30 04:03:02;;;;;;;;;;;21.10;68.80;;;;;;1575416;74;2081;-78
2022/11/30 04:05:04;;;;;;;;;;;21.00;68.70;;;;;;1572447;74;792;-77
2022/11/30 04:07:06;;;;;;;;;;;21.10;68.90;;;;;;1575768;74;722;-77
2022/11/30 04:09:08;;;;;;;;;;;21.10;68.70;;;;;;1544312;75;716;-77
2022/11/30 04:11:10;;;;;;;;;;;21.00;68.70;;;;;;1575974;74;1940;-78
2022/11/30 04:13:12;;;;;;;;;;;21.10;69.00;;;;;;1545066;75;709;-78
2022/11/30 04:15:14;;;;;;;;;;;21.10;69.10;;;;;;1534242;76;713;-78
2022/11/30 04:17:16;;;;;;;;;;;21.10;69.00;;;;;;1534752;76;738;-76
2022/11/30 04:19:18;;;;;;;;;;;21.20;69.00;;;;;;1529721;76;708;-76
2022/11/30 04:21:20;;;;;;;;;;;21.20;68.90;;;;;;1535754;76;1083;-77
2022/11/30 04:23:22;;;;;;;;;;;21.20;68.90;;;;;;1540191;76;719;-78
2022/11/30 04:25:24;;;;;;;;;;;21.10;68.90;;;;;;1539722;76;1386;-78
2022/11/30 04:27:27;;;;;;;;;;;21.20;68.90;;;;;;1550804;75;707;-78
2022/11/30 04:29:30;;;;;;;;;;;21.10;68.90;;;;;;1574875;74;1152;-79
2022/11/30 04:31:32;;;;;;;;;;;21.20;68.90;;;;;;1541970;75;1913;-76
2022/11/30 04:33:33;;;;;;;;;;;21.20;68.90;;;;;;1510903;77;545;-77
2022/11/30 04:35:37;;;;;;;;;;;21.20;68.60;;;;;;1508955;77;722;-77
2022/11/30 04:37:39;;;;;;;;;;;21.20;68.60;;;;;;1575605;74;2093;-78
2022/11/30 04:39:41;;;;;;;;;;;21.20;68.60;;;;;;1582136;74;1509;-78
2022/11/30 04:41:43;;;;;;;;;;;21.20;68.50;;;;;;1578112;74;724;-78
2022/11/30 04:43:44;;;;;;;;;;;21.20;68.50;;;;;;1572634;74;705;-78
2022/11/30 04:45:46;;;;;;;;;;;21.20;68.40;;;;;;1575214;74;709;-78
2022/11/30 04:47:48;;;;;;;;;;;21.20;68.40;;;;;;1535746;75;953;-78
2022/11/30 04:49:50;;;;;;;;;;;21.20;68.40;;;;;;1509679;77;1949;-78
2022/11/30 04:51:52;;;;;;;;;;;21.30;68.50;;;;;;1530080;76;812;-80
2022/11/30 04:53:54;;;;;;;;;;;21.20;68.30;;;;;;1535415;76;1527;-81
2022/11/30 04:55:56;;;;;;;;;;;21.20;68.30;;;;;;1534038;76;730;-78
2022/11/30 04:57:58;;;;;;;;;;;21.30;68.30;;;;;;1534225;76;716;-78
2022/11/30 04:59:59;;;;;;;;;;;21.20;68.30;;;;;;1544284;75;1132;-77
2022/11/30 05:02:01;;;;;;;;;;;21.20;68.20;;;;;;1534400;76;760;-78
2022/11/30 05:04:03;;;;;;;;;;;21.20;68.30;;;;;;1532391;76;747;-78
2022/11/30 05:06:05;;;;;;;;;;;21.30;68.40;;;;;;1534540;76;697;-78
2022/11/30 05:08:07;;;;;;;;;;;21.30;68.40;;;;;;1534639;76;1574;-78
2022/11/30 05:10:09;;;;;;;;;;;21.30;68.30;;;;;;1534344;76;1934;-78
2022/11/30 05:12:11;;;;;;;;;;;21.30;68.30;;;;;;1532049;76;765;-78
2022/11/30 05:14:13;;;;;;;;;;;21.20;68.20;;;;;;1529488;76;629;-78
2022/11/30 05:16:15;;;;;;;;;;;21.20;68.20;;;;;;1533767;76;762;-78
2022/11/30 05:18:16;;;;;;;;;;;21.30;68.20;;;;;;1533637;76;699;-79
2022/11/30 05:20:18;;;;;;;;;;;21.30;68.20;;;;;;1534266;76;1097;-77
2022/11/30 05:22:20;;;;;;;;;;;21.20;68.20;;;;;;1506244;77;1662;-80
2022/11/30 05:24:22;;;;;;;;;;;21.20;68.20;;;;;;1581831;74;712;-74
2022/11/30 05:26:24;;;;;;;;;;;21.20;68.20;;;;;;1535804;75;727;-79
2022/11/30 05:28:26;;;;;;;;;;;21.30;68.30;;;;;;1504458;77;713;-75
2022/11/30 05:30:28;;;;;;;;;;;21.30;68.40;;;;;;1534364;76;1936;-77
2022/11/30 05:32:30;;;;;;;;;;;21.30;68.40;;;;;;1574440;74;716;-78
2022/11/30 05:34:31;;;;;;;;;;;21.30;68.50;;;;;;1572949;74;669;-78
2022/11/30 05:36:33;;;;;;;;;;;21.30;68.50;;;;;;1580610;74;1511;-80
2022/11/30 05:38:35;;;;;;;;;;;21.30;68.50;;;;;;1580707;74;751;-77
2022/11/30 05:40:37;;;;;;;;;;;21.30;68.40;;;;;;1581099;74;1192;-75
2022/11/30 05:42:39;;;;;;;;;;;20.90;68.30;;;;;;1575118;74;838;-72
2022/11/30 05:44:41;;;;;;;;;;;21.30;68.20;;;;;;1574391;74;707;-74
2022/11/30 05:46:43;;;;;;;;;;;21.30;68.10;;;;;;1584693;73;712;-77
2022/11/30 05:48:45;;;;;;;;;;;21.30;68.20;;;;;;1578360;74;1554;-78
2022/11/30 05:50:47;;;;;;;;;;;21.30;68.00;;;;;;1576866;74;1958;-79
2022/11/30 05:52:49;;;;;;;;;;;21.30;67.90;;;;;;1584731;74;775;-76
2022/11/30 05:54:51;;;;;;;;;;;21.30;67.90;;;;;;1540710;75;1298;-76
2022/11/30 05:56:53;;;;;;;;;;;21.30;67.90;;;;;;1572157;74;578;-78
2022/11/30 05:58:54;;;;;;;;;;;21.30;67.90;;;;;;1563159;74;763;-77
2022/11/30 06:00:56;;;;;;;;;;;21.30;68.00;;;;;;1533271;75;1119;-78
2022/11/30 06:02:58;;;;;;;;;;;21.30;68.10;;;;;;1575542;74;1537;-76
2022/11/30 06:05:00;;;;;;;;;;;21.30;68.00;;;;;;1532469;76;809;-79
2022/11/30 06:07:03;;;;;;;;;;;21.30;68.10;;;;;;1576579;74;784;-79
2022/11/30 06:09:05;;;;;;;;;;;21.30;68.10;;;;;;1536659;75;856;-79
2022/11/30 06:11:07;;;;;;;;;;;21.30;68.00;;;;;;1574151;74;1950;-77
2022/11/30 06:13:08;;;;;;;;;;;21.30;68.00;;;;;;1575518;74;650;-76
2022/11/30 06:15:10;;;;;;;;;;;21.30;68.20;;;;;;1574922;74;721;-76
2022/11/30 06:17:12;;;;;;;;;;;21.30;68.10;;;;;;1575708;74;1340;-73
2022/11/30 06:19:14;;;;;;;;;;;21.30;68.30;;;;;;1578676;74;777;-75
2022/11/30 06:21:16;;;;;;;;;;;21.30;68.10;;;;;;1575353;74;1100;-73
2022/11/30 06:23:18;;;;;;;;;;;21.30;67.80;;;;;;1577584;74;760;-75
2022/11/30 06:25:20;;;;;;;;;;;21.30;67.80;;;;;;1580454;74;865;-74
2022/11/30 06:27:22;;;;;;;;;;;21.30;67.80;;;;;;1573861;74;548;-74
2022/11/30 06:29:24;;;;;;;;;;;21.30;67.50;;;;;;1574861;74;718;-76
2022/11/30 06:31:26;;;;;;;;;;;21.40;67.10;;;;;;1576859;74;1949;-74
2022/11/30 06:33:28;;;;;;;;;;;21.40;67.10;;;;;;1569630;74;815;-74
2022/11/30 06:35:29;;;;;;;;;;;21.30;67.20;;;;;;1575880;74;756;-72
2022/11/30 06:37:34;;;;;;;;;;;21.30;67.00;;;;;;1576623;74;669;-73
2022/11/30 06:39:36;;;;;;;;;;;21.30;66.90;;;;;;1530338;76;1191;-72
2022/11/30 06:41:38;;;;;;;;;;;21.30;66.80;;;;;;1506150;77;792;-72
2022/11/30 06:43:40;;;;;;;;;;;21.30;66.70;;;;;;1508300;77;753;-69
2022/11/30 06:45:45;;;;;;;;;;;21.40;66.50;;;;;;1530797;76;1562;-72
2022/11/30 06:47:46;;;;;;;;;;;21.40;66.30;;;;;;1511643;77;648;-71
2022/11/30 06:49:48;;;;;;;;;;;21.30;66.30;;;;;;1511221;77;1171;-71
2022/11/30 06:51:50;;;;;;;;;;;21.30;66.20;;;;;;1520515;77;1933;-70
2022/11/30 06:53:52;;;;;;;;;;;21.30;66.10;;;;;;1522158;77;738;-72
2022/11/30 06:55:54;;;;;;;;;;;21.40;66.10;;;;;;1516702;77;718;-74
2022/11/30 06:57:56;;;;;;;;;;;21.30;66.10;;;;;;1522190;77;719;-73
2022/11/30 06:59:58;;;;;;;;;;;21.40;66.10;;;;;;1573477;74;1526;-72
2022/11/30 07:01:59;;;;;;;;;;;21.40;66.00;;;;;;1533240;76;747;-71
2022/11/30 07:04:01;;;;;;;;;;;21.40;65.90;;;;;;1572501;74;687;-72
2022/11/30 07:06:08;;;;;;;;;;;21.40;65.80;;;;;;1529893;75;705;-74
2022/11/30 07:08:10;;;;;;;;;;;21.40;65.70;;;;;;1574870;74;1047;-72
2022/11/30 07:10:12;;;;;;;;;;;21.40;65.70;;;;;;1576396;74;1153;-70
2022/11/30 07:12:14;;;;;;;;;;;21.40;61.20;;;;;;1574567;74;1942;-70
2022/11/30 07:14:16;;;;;;;;;;;21.40;56.80;;;;;;1574832;74;1627;-77
2022/11/30 07:16:18;;;;;;;;;;;21.40;55.70;;;;;;1576119;74;629;-76
2022/11/30 07:18:20;;;;;;;;;;;21.50;55.60;;;;;;1576083;74;772;-78
2022/11/30 07:20:21;;;;;;;;;;;21.50;54.80;;;;;;1575890;74;1164;-74
2022/11/30 07:22:23;;;;;;;;;;;21.50;54.00;;;;;;1540776;75;745;-77
2022/11/30 07:26:45;;;;;;;;;;;21.50;53.10;;;;;;1528625;76;1614;-77
2022/11/30 07:28:49;;;;;;;;;;;21.50;52.80;;;;;;1512894;77;1543;-77
2022/11/30 07:30:50;;;;;;;;;;;21.40;52.30;;;;;;1556449;73;2203;-67
2022/11/30 07:32:52;;;;;;;;;;;21.40;52.00;;;;;;1585816;73;798;-66
2022/11/30 07:34:54;;;;;;;;;;;21.30;51.50;;;;;;1595453;73;713;-66
2022/11/30 07:36:56;;;;;;;;;;;21.30;51.40;;;;;;1593982;74;722;-66
2022/11/30 07:38:58;;;;;;;;;;;21.30;51.20;;;;;;1590394;74;703;-66
2022/11/30 07:41:00;;;;;;;;;;;21.30;51.00;;;;;;1579332;73;1164;-66
2022/11/30 07:43:02;;;;;;;;;;;21.30;50.60;;;;;;1559366;75;1587;-66
2022/11/30 07:45:04;;;;;;;;;;;21.20;49.90;;;;;;1558284;75;736;-66
2022/11/30 07:47:06;;;;;;;;;;;21.20;49.80;;;;;;1558379;75;750;-67
2022/11/30 07:49:08;;;;;;;;;;;21.10;49.50;;;;;;1558591;75;734;-66
2022/11/30 07:51:12;;;;;;;;;;;21.00;49.10;;;;;;1557873;75;1951;-65
2022/11/30 07:53:14;;;;;;;;;;;21.10;48.90;;;;;;1553754;75;724;-66
2022/11/30 07:55:16;;;;;;;;;;;21.00;48.70;;;;;;1559360;75;1450;-66
2022/11/30 07:57:18;;;;;;;;;;;20.90;48.50;;;;;;1556191;75;696;-65
2022/11/30 07:59:20;;;;;;;;;;;21.00;48.30;;;;;;1554770;75;718;-65
2022/11/30 08:01:23;;;;;;;;;;;20.90;48.20;;;;;;1558748;75;1137;-65
2022/11/30 08:03:25;;;;;;;;;;;20.90;48.00;;;;;;1559243;75;692;-65
2022/11/30 08:05:26;;;;;;;;;;;20.80;48.00;;;;;;1559411;75;707;-66
2022/11/30 08:07:28;;;;;;;;;;;20.80;47.80;;;;;;1554974;75;876;-67
2022/11/30 08:09:30;;;;;;;;;;;20.80;47.80;;;;;;1557957;75;1488;-65
2022/11/30 08:11:33;;;;;;;;;;;20.70;47.60;;;;;;1559355;75;1994;-66
2022/11/30 08:13:35;;;;;;;;;;;20.80;47.70;;;;;;1557717;76;792;-65
2022/11/30 08:15:37;;;;;;;;;;;20.70;47.80;;;;;;1558418;76;577;-65
2022/11/30 08:17:39;;;;;;;;;;;20.70;47.40;;;;;;1551222;76;654;-65
2022/11/30 08:19:41;;;;;;;;;;;20.70;47.20;;;;;;1556497;75;837;-63
2022/11/30 08:21:43;;;;;;;;;;;20.60;47.10;;;;;;1558799;75;1115;-65
2022/11/30 08:23:45;;;;;;;;;;;20.60;47.10;;;;;;1556815;75;1230;-65
2022/11/30 08:25:47;;;;;;;;;;;20.60;47.00;;;;;;1542505;76;699;-65
2022/11/30 08:27:49;;;;;;;;;;;20.60;47.00;;;;;;1552929;75;738;-65
2022/11/30 08:29:51;;;;;;;;;;;20.50;46.60;;;;;;1556055;75;1146;-65
2022/11/30 08:31:54;;;;;;;;;;;20.50;46.60;;;;;;1551037;76;1933;-64
2022/11/30 08:33:57;;;;;;;;;;;20.50;46.60;;;;;;1558129;75;718;-65
2022/11/30 08:36:06;;;;;;;;;;;20.40;46.60;;;;;;1544285;76;1078;-64
2022/11/30 08:38:08;;;;;;;;;;;20.40;46.30;;;;;;1559318;75;1536;-66
2022/11/30 08:40:10;;;;;;;;;;;20.40;46.40;;;;;;1553096;75;1431;-63
2022/11/30 08:42:12;;;;;;;;;;;20.30;46.30;;;;;;1557026;75;728;-63
2022/11/30 08:44:14;;;;;;;;;;;20.40;46.30;;;;;;1559201;75;711;-63
2022/11/30 08:46:16;;;;;;;;;;;20.30;46.20;;;;;;1555307;75;807;-63
2022/11/30 08:48:18;;;;;;;;;;;20.30;46.10;;;;;;1556901;75;722;-63
2022/11/30 08:50:20;;;;;;;;;;;20.30;46.00;;;;;;1556654;75;1138;-64
2022/11/30 08:52:22;;;;;;;;;;;20.30;46.00;;;;;;1557573;75;1929;-62
2022/11/30 08:54:26;;;;;;;;;;;20.30;45.80;;;;;;1557763;75;645;-63
2022/11/30 08:56:27;;;;;;;;;;;20.20;45.70;;;;;;1555119;75;1355;-63
2022/11/30 08:58:30;;;;;;;;;;;20.10;45.60;;;;;;1556835;75;781;-65
2022/11/30 09:00:32;;;;;;;;;;;20.10;45.70;;;;;;1556498;75;1111;-67
2022/11/30 09:02:33;;;;;;;;;;;20.10;45.50;;;;;;1555933;75;806;-65
2022/11/30 09:04:35;;;;;;;;;;;20.20;45.50;;;;;;1557695;75;803;-66
2022/11/30 09:06:37;;;;;;;;;;;20.20;45.50;;;;;;1549527;76;1456;-66
2022/11/30 09:08:40;;;;;;;;;;;20.20;45.20;;;;;;1557605;76;707;-66
2022/11/30 09:10:41;;;;;;;;;;;20.20;45.20;;;;;;1546190;75;1131;-66
2022/11/30 09:12:43;;;;;;;;;;;20.00;45.00;;;;;;1559601;75;1925;-65
2022/11/30 09:14:46;;;;;;;;;;;20.10;45.00;;;;;;1557956;75;730;-65
2022/11/30 09:16:48;;;;;;;;;;;20.10;45.00;;;;;;1556746;75;718;-66
2022/11/30 09:18:50;;;;;;;;;;;20.00;45.10;;;;;;1557881;75;799;-64
2022/11/30 09:20:53;;;;;;;;;;;20.00;45.00;;;;;;1557881;75;1476;-66
2022/11/30 09:22:55;;;;;;;;;;;20.00;44.90;;;;;;1558949;75;731;-65
2022/11/30 09:24:57;;;;;;;;;;;20.00;44.80;;;;;;1558090;75;717;-65
2022/11/30 09:26:59;;;;;;;;;;;19.40;44.50;;;;;;1557766;75;711;-66
2022/11/30 09:29:01;;;;;;;;;;;19.90;45.00;;;;;;1558617;75;690;-65
2022/11/30 09:31:04;;;;;;;;;;;19.90;44.80;;;;;;1556911;75;1120;-65
2022/11/30 09:33:06;;;;;;;;;;;19.90;44.60;;;;;;1551898;75;1925;-66
2022/11/30 09:35:08;;;;;;;;;;;19.90;44.60;;;;;;1552043;75;1496;-66
2022/11/30 09:37:10;;;;;;;;;;;19.90;44.70;;;;;;1558753;75;724;-65
2022/11/30 09:39:12;;;;;;;;;;;19.90;44.40;;;;;;1556394;75;785;-66
2022/11/30 09:41:15;;;;;;;;;;;19.80;44.30;;;;;;1554205;76;1198;-66
2022/11/30 09:43:35;;;;;;;;;;;19.80;44.20;;;;;;1553821;76;1793;-66
2022/11/30 09:45:37;;;;;;;;;;;19.80;44.30;;;;;;1555657;76;761;-66
2022/11/30 09:47:41;;;;;;;;;;;19.70;44.20;;;;;;1559421;75;731;-66
2022/11/30 09:49:43;;;;;;;;;;;19.70;44.00;;;;;;1556349;75;1783;-64
2022/11/30 09:51:45;;;;;;;;;;;19.70;44.10;;;;;;1557889;75;1947;-66
2022/11/30 09:53:50;;;;;;;;;;;19.70;44.10;;;;;;1559329;75;680;-66
2022/11/30 09:55:53;;;;;;;;;;;19.80;43.90;;;;;;1554997;75;788;-66
2022/11/30 09:57:56;;;;;;;;;;;19.70;43.90;;;;;;1556065;75;777;-66
2022/11/30 09:59:59;;;;;;;;;;;19.70;44.00;;;;;;1552858;75;1170;-66
2022/11/30 10:02:01;;;;;;;;;;;19.70;44.00;;;;;;1554383;75;1449;-66
2022/11/30 10:04:03;;;;;;;;;;;19.70;43.90;;;;;;1557042;75;979;-65
2022/11/30 10:06:07;;;;;;;;;;;19.70;43.70;;;;;;1554863;75;679;-65
2022/11/30 10:08:26;;;;;;;;;;;19.70;43.70;;;;;;1559805;75;798;-63
2022/11/30 10:10:29;;;;;;;;;;;19.70;43.80;;;;;;1557541;75;1141;-65
2022/11/30 10:12:35;;;;;;;;;;;19.60;43.60;;;;;;1555386;75;1905;-64
2022/11/30 10:14:45;;;;;;;;;;;19.60;43.60;;;;;;1559286;75;759;-64
2022/11/30 10:17:05;;;;;;;;;;;19.60;43.30;;;;;;1557956;75;1432;-65
2022/11/30 10:19:11;;;;;;;;;;;19.60;43.40;;;;;;1557481;75;702;-65
2022/11/30 10:21:18;;;;;;;;;;;19.50;43.30;;;;;;1556963;75;1119;-64
2022/11/30 10:23:21;;;;;;;;;;;19.60;43.50;;;;;;1552627;75;714;-65
2022/11/30 10:25:30;;;;;;;;;;;19.60;43.40;;;;;;1557787;75;1872;-64
2022/11/30 10:27:51;;;;;;;;;;;19.50;43.20;;;;;;1557331;75;1791;-66
2022/11/30 10:29:53;;;;;;;;;;;19.50;43.20;;;;;;1558082;75;1146;-63
2022/11/30 10:31:56;;;;;;;;;;;19.50;43.10;;;;;;1558959;75;1936;-63
2022/11/30 10:33:58;;;;;;;;;;;19.40;42.90;;;;;;1554240;75;1050;-65
2022/11/30 10:36:02;;;;;;;;;;;19.50;43.10;;;;;;1556602;75;749;-65
2022/11/30 10:38:05;;;;;;;;;;;19.50;43.00;;;;;;1558301;75;711;-65
2022/11/30 10:40:26;;;;;;;;;;;19.50;42.90;;;;;;1536489;75;1647;-64
2022/11/30 10:42:29;;;;;;;;;;;19.40;42.80;;;;;;1556986;75;670;-65
2022/11/30 10:44:32;;;;;;;;;;;19.40;42.80;;;;;;1558306;75;1489;-66
2022/11/30 10:46:35;;;;;;;;;;;19.40;42.60;;;;;;1556735;75;799;-65
2022/11/30 10:48:39;;;;;;;;;;;19.40;42.50;;;;;;1557146;75;845;-65
2022/11/30 10:50:41;;;;;;;;;;;19.40;42.50;;;;;;1544085;75;1148;-66
2022/11/30 10:52:47;;;;;;;;;;;19.40;42.40;;;;;;1541561;75;1938;-66
2022/11/30 10:54:49;;;;;;;;;;;19.40;42.40;;;;;;1560032;75;713;-66
2022/11/30 10:56:51;;;;;;;;;;;19.40;42.40;;;;;;1558034;75;814;-65
2022/11/30 10:58:54;;;;;;;;;;;19.20;42.20;;;;;;1556303;75;1441;-64
2022/11/30 11:01:00;;;;;;;;;;;19.40;42.30;;;;;;1555226;75;1147;-66
2022/11/30 11:03:02;;;;;;;;;;;19.40;42.10;;;;;;1542428;75;709;-66
2022/11/30 11:05:15;;;;;;;;;;;19.40;42.20;;;;;;1564396;75;774;-65
2022/11/30 11:07:17;;;;;;;;;;;19.40;42.30;;;;;;1547546;75;790;-65
2022/11/30 11:09:23;;;;;;;;;;;19.30;42.20;;;;;;1528283;75;787;-65
2022/11/30 11:11:26;;;;;;;;;;;19.30;42.10;;;;;;1554109;75;1146;-64
2022/11/30 11:13:35;;;;;;;;;;;19.30;42.20;;;;;;1551655;76;1927;-65
2022/11/30 11:15:37;;;;;;;;;;;19.30;42.20;;;;;;1547761;75;817;-66
2022/11/30 11:17:39;;;;;;;;;;;19.30;42.10;;;;;;1554032;75;782;-66
2022/11/30 11:19:42;;;;;;;;;;;19.20;42.10;;;;;;1556485;75;795;-66
2022/11/30 11:21:47;;;;;;;;;;;19.30;42.20;;;;;;1555488;75;1023;-65
2022/11/30 11:23:49;;;;;;;;;;;19.20;42.10;;;;;;1553106;76;867;-65
2022/11/30 11:25:52;;;;;;;;;;;19.20;42.00;;;;;;1554521;76;812;-65
2022/11/30 11:27:55;;;;;;;;;;;19.00;41.50;;;;;;1555524;75;1622;-65
2022/11/30 11:29:58;;;;;;;;;;;19.20;42.10;;;;;;1557837;75;1117;-65
2022/11/30 11:32:11;;;;;;;;;;;19.20;42.10;;;;;;1553048;75;1002;-65
2022/11/30 11:34:20;;;;;;;;;;;19.20;42.20;;;;;;1555703;75;1936;-67
2022/11/30 11:36:26;;;;;;;;;;;19.20;42.10;;;;;;1555864;76;1980;-66
2022/11/30 11:38:29;;;;;;;;;;;19.20;42.10;;;;;;1545432;75;924;-66
2022/11/30 11:40:31;;;;;;;;;;;19.20;42.10;;;;;;1549717;76;1458;-67
2022/11/30 11:42:37;;;;;;;;;;;19.20;42.00;;;;;;1549978;75;699;-66
2022/11/30 11:44:39;;;;;;;;;;;19.20;41.90;;;;;;1552874;75;773;-66
2022/11/30 11:46:57;;;;;;;;;;;19.10;41.80;;;;;;1522609;76;826;-66
2022/11/30 11:49:01;;;;;;;;;;;19.10;41.80;;;;;;1546326;76;818;-66
2022/11/30 11:51:06;;;;;;;;;;;19.10;41.80;;;;;;1548655;76;1321;-67
2022/11/30 11:53:21;;;;;;;;;;;19.00;41.70;;;;;;1555264;76;1925;-67
2022/11/30 11:55:19;;;;;;;;;;;19.00;41.70;;;;;;1554265;76;1660;-65
2022/11/30 11:57:22;;;;;;;;;;;19.10;41.80;;;;;;1551496;76;698;-65
2022/11/30 11:59:43;;;;;;;;;;;19.10;41.80;;;;;;1548085;75;729;-65
2022/11/30 12:01:50;;;;;;;;;;;19.10;41.80;;;;;;1554546;75;1809;-65
2022/11/30 12:03:56;;;;;;;;;;;19.00;41.60;;;;;;1555066;75;1017;-65
2022/11/30 12:06:00;;;;;;;;;;;19.00;41.70;;;;;;1555681;75;816;-66
2022/11/30 12:08:20;;;;;;;;;;;19.00;41.60;;;;;;1559606;75;707;-65
2022/11/30 12:10:26;;;;;;;;;;;19.00;41.60;;;;;;1555295;75;1131;-66
2022/11/30 12:12:28;;;;;;;;;;;19.00;41.50;;;;;;1553777;75;1919;-65
2022/11/30 12:14:30;;;;;;;;;;;19.00;41.50;;;;;;1556140;75;721;-66
2022/11/30 12:16:33;;;;;;;;;;;19.00;41.50;;;;;;1555732;75;864;-66